sensor_id;sensor_type;location;lat;lon;timestamp;pressure;altitude;pressure_sealevel;temperature;humidity
10688;BME280;5392;42.688;23.298;2023-05-25T00:00:59;57409.25;;;-144.48;100.00
10688;BME280;5392;42.688;23.298;2023-05-25T00:03:29;57386.28;;;-144.48;100.00
10688;BME280;5392;42.688;23.298;2023-05-25T00:05:58;57386.28;;;-144.48;100.00
10688;BME280;5392;42.688;23.298;2023-05-25T00:08:28;57363.31;;;-144.48;100.00
10688;BME280;5392;42.688;23.298;2023-05-25T00:10:55;57380.03;;;-144.48;100.00
10688;BME280;5392;42.688;23.298;2023-05-25T00:13:22;57365.41;;;-144.48;100.00
10688;BME280;5392;42.688;23.298;2023-05-25T00:15:49;57361.25;;;-144.48;100.00
10688;BME280;5392;42.688;23.298;2023-05-25T00:18:16;57377.94;;;-144.48;100.00
10688;BME280;5392;42.688;23.298;2023-05-25T00:20:44;57344.53;;;-144.48;100.00
10688;BME280;5392;42.688;23.298;2023-05-25T00:23:13;57384.19;;;-144.48;100.00
10688;BME280;5392;42.688;23.298;2023-05-25T00:25:40;57367.50;;;-144.48;100.00
10688;BME280;5392;42.688;23.298;2023-05-25T00:28:07;57369.59;;;-144.48;100.00
10688;BME280;5392;42.688;23.298;2023-05-25T00:30:34;57380.03;;;-144.48;100.00
10688;BME280;5392;42.688;23.298;2023-05-25T00:33:00;57384.19;;;-144.48;100.00
10688;BME280;5392;42.688;23.298;2023-05-25T00:35:28;57350.81;;;-144.48;100.00
10688;BME280;5392;42.688;23.298;2023-05-25T00:37:55;57407.16;;;-144.48;100.00
10688;BME280;5392;42.688;23.298;2023-05-25T00:40:21;57344.53;;;-144.48;100.00
10688;BME280;5392;42.688;23.298;2023-05-25T00:42:49;57388.38;;;-144.48;100.00
10688;BME280;5392;42.688;23.298;2023-05-25T00:45:16;57375.84;;;-144.48;100.00
10688;BME280;5392;42.688;23.298;2023-05-25T00:47:44;57329.94;;;-144.48;100.00
10688;BME280;5392;42.688;23.298;2023-05-25T00:50:13;57348.72;;;-144.48;100.00
10688;BME280;5392;42.688;23.298;2023-05-25T00:52:40;57346.63;;;-144.48;100.00
10688;BME280;5392;42.688;23.298;2023-05-25T00:55:08;57380.03;;;-144.48;100.00
10688;BME280;5392;42.688;23.298;2023-05-25T00:57:40;57369.59;;;-144.48;100.00
10688;BME280;5392;42.688;23.298;2023-05-25T01:00:08;57350.81;;;-144.48;100.00
10688;BME280;5392;42.688;23.298;2023-05-25T01:02:38;57338.28;;;-144.48;100.00
10688;BME280;5392;42.688;23.298;2023-05-25T01:05:07;57363.31;;;-144.48;100.00
10688;BME280;5392;42.688;23.298;2023-05-25T01:07:36;57390.47;;;-144.48;100.00
10688;BME280;5392;42.688;23.298;2023-05-25T01:10:05;57329.94;;;-144.48;100.00
10688;BME280;5392;42.688;23.298;2023-05-25T01:12:36;57388.38;;;-144.48;100.00
10688;BME280;5392;42.688;23.298;2023-05-25T01:15:04;57367.50;;;-144.48;100.00
10688;BME280;5392;42.688;23.298;2023-05-25T01:17:32;57382.13;;;-144.48;100.00
10688;BME280;5392;42.688;23.298;2023-05-25T01:20:04;57400.91;;;-144.48;100.00
10688;BME280;5392;42.688;23.298;2023-05-25T01:22:58;57409.25;;;-144.48;100.00
10688;BME280;5392;42.688;23.298;2023-05-25T01:25:38;57371.69;;;-144.48;100.00
10688;BME280;5392;42.688;23.298;2023-05-25T01:28:08;57405.06;;;-144.48;100.00
10688;BME280;5392;42.688;23.298;2023-05-25T01:30:38;57380.03;;;-144.48;100.00
10688;BME280;5392;42.688;23.298;2023-05-25T01:33:09;57388.38;;;-144.48;100.00
10688;BME280;5392;42.688;23.298;2023-05-25T01:35:37;57380.03;;;-144.48;100.00
10688;BME280;5392;42.688;23.298;2023-05-25T01:38:06;57415.50;;;-144.48;100.00
10688;BME280;5392;42.688;23.298;2023-05-25T01:40:33;57361.25;;;-144.48;100.00
10688;BME280;5392;42.688;23.298;2023-05-25T01:43:00;57369.59;;;-144.48;100.00
10688;BME280;5392;42.688;23.298;2023-05-25T01:45:27;57350.81;;;-144.48;100.00
10688;BME280;5392;42.688;23.298;2023-05-25T01:48:01;57375.84;;;-144.48;100.00
10688;BME280;5392;42.688;23.298;2023-05-25T01:53:12;57392.56;;;-144.48;100.00
10688;BME280;5392;42.688;23.298;2023-05-25T01:55:46;57388.38;;;-144.48;100.00
10688;BME280;5392;42.688;23.298;2023-05-25T01:58:14;57373.75;;;-144.48;100.00
10688;BME280;5392;42.688;23.298;2023-05-25T02:00:42;57388.38;;;-144.48;100.00
10688;BME280;5392;42.688;23.298;2023-05-25T02:03:10;57398.81;;;-144.48;100.00
10688;BME280;5392;42.688;23.298;2023-05-25T02:05:40;57361.25;;;-144.48;100.00
10688;BME280;5392;42.688;23.298;2023-05-25T02:08:07;57348.72;;;-144.48;100.00
10688;BME280;5392;42.688;23.298;2023-05-25T02:10:34;57369.59;;;-144.48;100.00
10688;BME280;5392;42.688;23.298;2023-05-25T02:13:01;57354.97;;;-144.48;100.00
10688;BME280;5392;42.688;23.298;2023-05-25T02:15:30;57369.59;;;-144.48;100.00
10688;BME280;5392;42.688;23.298;2023-05-25T02:17:58;57398.81;;;-144.48;100.00
10688;BME280;5392;42.688;23.298;2023-05-25T02:20:26;57377.94;;;-144.48;100.00
10688;BME280;5392;42.688;23.298;2023-05-25T02:22:54;57384.19;;;-144.48;100.00
10688;BME280;5392;42.688;23.298;2023-05-25T02:25:20;57380.03;;;-144.48;100.00
10688;BME280;5392;42.688;23.298;2023-05-25T02:27:47;57363.31;;;-144.48;100.00
10688;BME280;5392;42.688;23.298;2023-05-25T02:30:14;57388.38;;;-144.48;100.00
10688;BME280;5392;42.688;23.298;2023-05-25T02:32:41;57365.41;;;-144.48;100.00
10688;BME280;5392;42.688;23.298;2023-05-25T02:35:08;57400.91;;;-144.48;100.00
10688;BME280;5392;42.688;23.298;2023-05-25T02:37:35;57377.94;;;-144.48;100.00
10688;BME280;5392;42.688;23.298;2023-05-25T02:40:02;57367.50;;;-144.48;100.00
10688;BME280;5392;42.688;23.298;2023-05-25T02:42:30;57392.56;;;-144.48;100.00
10688;BME280;5392;42.688;23.298;2023-05-25T02:44:57;57413.44;;;-144.48;100.00
10688;BME280;5392;42.688;23.298;2023-05-25T02:47:24;57382.13;;;-144.48;100.00
10688;BME280;5392;42.688;23.298;2023-05-25T02:49:51;57409.25;;;-144.48;100.00
10688;BME280;5392;42.688;23.298;2023-05-25T02:52:18;57396.72;;;-144.48;100.00
10688;BME280;5392;42.688;23.298;2023-05-25T02:54:45;57371.69;;;-144.48;100.00
10688;BME280;5392;42.688;23.298;2023-05-25T02:57:11;57384.19;;;-144.48;100.00
10688;BME280;5392;42.688;23.298;2023-05-25T02:59:38;57382.13;;;-144.48;100.00
10688;BME280;5392;42.688;23.298;2023-05-25T03:02:05;57382.13;;;-144.48;100.00
10688;BME280;5392;42.688;23.298;2023-05-25T03:04:31;57354.97;;;-144.48;100.00
10688;BME280;5392;42.688;23.298;2023-05-25T03:07:00;57346.63;;;-144.48;100.00
10688;BME280;5392;42.688;23.298;2023-05-25T03:09:27;57380.03;;;-144.48;100.00
10688;BME280;5392;42.688;23.298;2023-05-25T03:11:54;57403.00;;;-144.48;100.00
10688;BME280;5392;42.688;23.298;2023-05-25T03:14:21;57361.25;;;-144.48;100.00
10688;BME280;5392;42.688;23.298;2023-05-25T03:16:47;57346.63;;;-144.48;100.00
10688;BME280;5392;42.688;23.298;2023-05-25T03:19:18;57382.13;;;-144.48;100.00
10688;BME280;5392;42.688;23.298;2023-05-25T03:21:46;57411.34;;;-144.48;100.00
10688;BME280;5392;42.688;23.298;2023-05-25T03:24:13;57359.16;;;-144.48;100.00
10688;BME280;5392;42.688;23.298;2023-05-25T03:26:40;57392.56;;;-144.48;100.00
10688;BME280;5392;42.688;23.298;2023-05-25T03:29:06;57352.91;;;-144.48;100.00
10688;BME280;5392;42.688;23.298;2023-05-25T03:31:33;57346.63;;;-144.48;100.00
10688;BME280;5392;42.688;23.298;2023-05-25T03:34:00;57409.25;;;-144.48;100.00
10688;BME280;5392;42.688;23.298;2023-05-25T03:36:26;57359.16;;;-144.48;100.00
10688;BME280;5392;42.688;23.298;2023-05-25T03:38:53;57386.28;;;-144.48;100.00
10688;BME280;5392;42.688;23.298;2023-05-25T03:41:20;57354.97;;;-144.48;100.00
10688;BME280;5392;42.688;23.298;2023-05-25T03:43:47;57359.16;;;-144.48;100.00
10688;BME280;5392;42.688;23.298;2023-05-25T03:46:14;57354.97;;;-144.48;100.00
10688;BME280;5392;42.688;23.298;2023-05-25T03:48:41;57373.75;;;-144.48;100.00
10688;BME280;5392;42.688;23.298;2023-05-25T03:51:08;57367.50;;;-144.48;96.03
10688;BME280;5392;42.688;23.298;2023-05-25T03:53:35;57384.19;;;-144.48;91.44
10688;BME280;5392;42.688;23.298;2023-05-25T03:56:01;57332.03;;;-144.48;90.56
10688;BME280;5392;42.688;23.298;2023-05-25T03:58:28;57325.75;;;-144.48;91.65
10688;BME280;5392;42.688;23.298;2023-05-25T04:00:55;57363.31;;;-144.48;89.97
10688;BME280;5392;42.688;23.298;2023-05-25T04:03:22;57279.84;;;-144.48;86.04
10688;BME280;5392;42.688;23.298;2023-05-25T04:05:49;57327.84;;;-144.48;82.22
10688;BME280;5392;42.688;23.298;2023-05-25T04:08:16;57317.41;;;-144.48;76.07
10688;BME280;5392;42.688;23.298;2023-05-25T04:10:46;57313.22;;;-144.48;70.92
10688;BME280;5392;42.688;23.298;2023-05-25T04:13:13;57363.31;;;-144.48;67.83
10688;BME280;5392;42.688;23.298;2023-05-25T04:15:40;57302.81;;;-144.48;63.02
10688;BME280;5392;42.688;23.298;2023-05-25T04:18:06;57317.41;;;-144.48;60.20
10688;BME280;5392;42.688;23.298;2023-05-25T04:20:34;57281.94;;;-144.48;58.24
10688;BME280;5392;42.688;23.298;2023-05-25T04:23:01;57279.84;;;-144.48;56.45
10688;BME280;5392;42.688;23.298;2023-05-25T04:25:28;57350.81;;;-144.48;56.96
10688;BME280;5392;42.688;23.298;2023-05-25T04:27:55;57284.00;;;-144.48;59.80
10688;BME280;5392;42.688;23.298;2023-05-25T04:30:22;57329.94;;;-144.48;61.67
10688;BME280;5392;42.688;23.298;2023-05-25T04:32:49;57354.97;;;-144.48;61.40
10688;BME280;5392;42.688;23.298;2023-05-25T04:35:16;57359.16;;;-144.48;62.21
10688;BME280;5392;42.688;23.298;2023-05-25T04:37:46;57332.03;;;-144.48;64.52
10688;BME280;5392;42.688;23.298;2023-05-25T04:40:14;57357.06;;;-144.48;65.37
10688;BME280;5392;42.688;23.298;2023-05-25T04:42:41;57338.28;;;-144.48;67.24
10688;BME280;5392;42.688;23.298;2023-05-25T04:45:08;57319.50;;;-144.48;65.85
10688;BME280;5392;42.688;23.298;2023-05-25T04:47:43;57325.75;;;-144.48;64.70
10688;BME280;5392;42.688;23.298;2023-05-25T04:50:11;57344.53;;;-144.48;65.98
10688;BME280;5392;42.688;23.298;2023-05-25T04:52:37;57327.84;;;-144.48;63.84
10688;BME280;5392;42.688;23.298;2023-05-25T04:55:04;57298.63;;;-144.48;62.22
10688;BME280;5392;42.688;23.298;2023-05-25T04:57:31;57288.19;;;-144.48;61.18
10688;BME280;5392;42.688;23.298;2023-05-25T04:59:58;57321.59;;;-144.48;60.33
10688;BME280;5392;42.688;23.298;2023-05-25T05:02:26;57313.22;;;-144.48;57.84
10688;BME280;5392;42.688;23.298;2023-05-25T05:04:53;57296.53;;;-144.48;56.23
10688;BME280;5392;42.688;23.298;2023-05-25T05:07:20;57332.03;;;-144.48;53.58
10688;BME280;5392;42.688;23.298;2023-05-25T05:09:48;57271.50;;;-144.48;52.47
10688;BME280;5392;42.688;23.298;2023-05-25T05:12:15;57284.00;;;-144.48;50.83
10688;BME280;5392;42.688;23.298;2023-05-25T05:14:42;57246.44;;;-144.48;51.02
10688;BME280;5392;42.688;23.298;2023-05-25T05:17:09;57265.22;;;-144.48;51.29
10688;BME280;5392;42.688;23.298;2023-05-25T05:19:36;57311.16;;;-144.48;53.04
10688;BME280;5392;42.688;23.298;2023-05-25T05:22:03;57294.44;;;-144.48;52.66
10688;BME280;5392;42.688;23.298;2023-05-25T05:24:29;57267.31;;;-144.48;51.68
10688;BME280;5392;42.688;23.298;2023-05-25T05:26:56;57263.16;;;-144.48;51.72
10688;BME280;5392;42.688;23.298;2023-05-25T05:29:24;57263.16;;;-144.48;50.96
10688;BME280;5392;42.688;23.298;2023-05-25T05:31:53;57269.41;;;-144.48;51.22
10688;BME280;5392;42.688;23.298;2023-05-25T05:34:20;57250.63;;;-144.48;51.50
10688;BME280;5392;42.688;23.298;2023-05-25T05:36:47;57281.94;;;-144.48;51.64
10688;BME280;5392;42.688;23.298;2023-05-25T05:39:23;57281.94;;;-144.48;53.90
10688;BME280;5392;42.688;23.298;2023-05-25T05:41:50;57292.38;;;-144.48;53.38
10688;BME280;5392;42.688;23.298;2023-05-25T05:44:19;57288.19;;;-144.48;52.68
10688;BME280;5392;42.688;23.298;2023-05-25T05:46:51;57279.84;;;-144.48;52.65
10688;BME280;5392;42.688;23.298;2023-05-25T05:49:26;57288.19;;;-144.48;53.36
10688;BME280;5392;42.688;23.298;2023-05-25T05:51:53;57263.16;;;-144.48;52.85
10688;BME280;5392;42.688;23.298;2023-05-25T05:54:20;57279.84;;;-144.48;52.30
10688;BME280;5392;42.688;23.298;2023-05-25T05:56:47;57267.31;;;-144.48;53.22
10688;BME280;5392;42.688;23.298;2023-05-25T05:59:13;57236.00;;;-144.48;51.64
10688;BME280;5392;42.688;23.298;2023-05-25T06:01:40;57231.84;;;-144.48;51.46
10688;BME280;5392;42.688;23.298;2023-05-25T06:04:08;57246.44;;;-144.48;50.80
10688;BME280;5392;42.688;23.298;2023-05-25T06:06:35;57254.78;;;-144.48;51.30
10688;BME280;5392;42.688;23.298;2023-05-25T06:09:03;57286.09;;;-144.48;51.85
10688;BME280;5392;42.688;23.298;2023-05-25T06:11:36;57275.66;;;-144.48;51.21
10688;BME280;5392;42.688;23.298;2023-05-25T06:14:05;57302.81;;;-144.48;50.97
10688;BME280;5392;42.688;23.298;2023-05-25T06:16:34;57263.16;;;-144.48;49.91
10688;BME280;5392;42.688;23.298;2023-05-25T06:19:02;57219.31;;;-144.48;48.98
10688;BME280;5392;42.688;23.298;2023-05-25T06:21:28;57227.66;;;-144.48;47.91
10688;BME280;5392;42.688;23.298;2023-05-25T06:23:55;57248.53;;;-144.48;48.59
10688;BME280;5392;42.688;23.298;2023-05-25T06:26:25;57202.63;;;-144.48;47.43
10688;BME280;5392;42.688;23.298;2023-05-25T06:28:52;57248.53;;;-144.48;47.83
10688;BME280;5392;42.688;23.298;2023-05-25T06:31:19;57208.88;;;-144.48;46.90
10688;BME280;5392;42.688;23.298;2023-05-25T06:33:46;57217.22;;;-144.48;47.95
10688;BME280;5392;42.688;23.298;2023-05-25T06:36:13;57258.97;;;-144.48;47.68
10688;BME280;5392;42.688;23.298;2023-05-25T06:38:41;57238.09;;;-144.48;47.53
10688;BME280;5392;42.688;23.298;2023-05-25T06:41:08;57238.09;;;-144.48;48.43
10688;BME280;5392;42.688;23.298;2023-05-25T06:43:38;57279.84;;;-144.48;48.55
10688;BME280;5392;42.688;23.298;2023-05-25T06:46:05;57223.50;;;-144.48;48.33
10688;BME280;5392;42.688;23.298;2023-05-25T06:48:32;57250.63;;;-144.48;49.57
10688;BME280;5392;42.688;23.298;2023-05-25T06:50:59;57273.56;;;-144.48;50.81
10688;BME280;5392;42.688;23.298;2023-05-25T06:53:26;57261.06;;;-144.48;51.89
10688;BME280;5392;42.688;23.298;2023-05-25T06:55:52;57240.19;;;-144.48;50.92
10688;BME280;5392;42.688;23.298;2023-05-25T06:58:19;57240.19;;;-144.48;50.24
10688;BME280;5392;42.688;23.298;2023-05-25T07:00:46;57267.31;;;-144.48;50.97
10688;BME280;5392;42.688;23.298;2023-05-25T07:03:13;57271.50;;;-144.48;50.98
10688;BME280;5392;42.688;23.298;2023-05-25T07:05:40;57277.75;;;-144.48;49.64
10688;BME280;5392;42.688;23.298;2023-05-25T07:08:07;57246.44;;;-144.48;50.25
10688;BME280;5392;42.688;23.298;2023-05-25T07:10:33;57288.19;;;-144.48;51.26
10688;BME280;5392;42.688;23.298;2023-05-25T07:13:00;57258.97;;;-144.48;51.11
10688;BME280;5392;42.688;23.298;2023-05-25T07:15:27;57277.75;;;-144.48;52.00
10688;BME280;5392;42.688;23.298;2023-05-25T07:17:54;57240.19;;;-144.48;50.80
10688;BME280;5392;42.688;23.298;2023-05-25T07:20:23;57240.19;;;-144.48;49.98
10688;BME280;5392;42.688;23.298;2023-05-25T07:22:50;57229.75;;;-144.48;49.86
10688;BME280;5392;42.688;23.298;2023-05-25T07:25:16;57240.19;;;-144.48;50.47
10688;BME280;5392;42.688;23.298;2023-05-25T07:27:47;57273.56;;;-144.48;50.01
10688;BME280;5392;42.688;23.298;2023-05-25T07:30:14;57294.44;;;-144.48;50.57
10688;BME280;5392;42.688;23.298;2023-05-25T07:32:41;57265.22;;;-144.48;50.71
10688;BME280;5392;42.688;23.298;2023-05-25T07:35:08;57219.31;;;-144.48;49.58
10688;BME280;5392;42.688;23.298;2023-05-25T07:37:34;57248.53;;;-144.48;50.57
10688;BME280;5392;42.688;23.298;2023-05-25T07:40:01;57279.84;;;-144.48;50.48
10688;BME280;5392;42.688;23.298;2023-05-25T07:42:28;57279.84;;;-144.48;50.58
10688;BME280;5392;42.688;23.298;2023-05-25T07:45:00;57294.44;;;-144.48;49.78
10688;BME280;5392;42.688;23.298;2023-05-25T07:47:27;57311.16;;;-144.48;50.30
10688;BME280;5392;42.688;23.298;2023-05-25T07:49:55;57294.44;;;-144.48;50.66
10688;BME280;5392;42.688;23.298;2023-05-25T07:52:21;57286.09;;;-144.48;51.92
10688;BME280;5392;42.688;23.298;2023-05-25T07:54:48;57309.06;;;-144.48;53.65
10688;BME280;5392;42.688;23.298;2023-05-25T07:57:15;57321.59;;;-144.48;54.56
10688;BME280;5392;42.688;23.298;2023-05-25T07:59:42;57340.38;;;-144.48;55.30
10688;BME280;5392;42.688;23.298;2023-05-25T08:02:10;57306.97;;;-144.48;55.90
10688;BME280;5392;42.688;23.298;2023-05-25T08:04:37;57369.59;;;-144.48;56.62
10688;BME280;5392;42.688;23.298;2023-05-25T08:07:04;57352.91;;;-144.48;57.37
10688;BME280;5392;42.688;23.298;2023-05-25T08:09:31;57375.84;;;-144.48;57.26
10688;BME280;5392;42.688;23.298;2023-05-25T08:11:57;57377.94;;;-144.48;59.09
10688;BME280;5392;42.688;23.298;2023-05-25T08:14:45;57386.28;;;-144.48;62.31
10688;BME280;5392;42.688;23.298;2023-05-25T08:17:12;57380.03;;;-144.48;67.35
10688;BME280;5392;42.688;23.298;2023-05-25T08:19:39;57382.13;;;-144.48;72.46
10688;BME280;5392;42.688;23.298;2023-05-25T08:22:05;57405.06;;;-144.48;73.28
10688;BME280;5392;42.688;23.298;2023-05-25T08:24:32;57442.66;;;-144.48;77.39
10688;BME280;5392;42.688;23.298;2023-05-25T08:26:59;57396.72;;;-144.48;81.24
10688;BME280;5392;42.688;23.298;2023-05-25T08:29:27;57396.72;;;-144.48;83.22
10688;BME280;5392;42.688;23.298;2023-05-25T08:31:54;57398.81;;;-144.48;97.28
10688;BME280;5392;42.688;23.298;2023-05-25T08:34:21;57432.22;;;-144.48;100.00
10688;BME280;5392;42.688;23.298;2023-05-25T08:36:47;57413.44;;;-144.48;100.00
10688;BME280;5392;42.688;23.298;2023-05-25T08:39:14;57386.28;;;-144.48;100.00
10688;BME280;5392;42.688;23.298;2023-05-25T08:41:43;57411.34;;;-144.48;100.00
10688;BME280;5392;42.688;23.298;2023-05-25T08:44:11;57377.94;;;-144.48;100.00
10688;BME280;5392;42.688;23.298;2023-05-25T08:46:40;57403.00;;;-144.48;100.00
10688;BME280;5392;42.688;23.298;2023-05-25T08:49:09;57409.25;;;-144.48;100.00
10688;BME280;5392;42.688;23.298;2023-05-25T08:51:40;57409.25;;;-144.48;100.00
10688;BME280;5392;42.688;23.298;2023-05-25T08:54:16;57396.72;;;-144.48;100.00
10688;BME280;5392;42.688;23.298;2023-05-25T08:56:52;57417.59;;;-144.48;100.00
10688;BME280;5392;42.688;23.298;2023-05-25T08:59:46;57428.03;;;-144.48;100.00
10688;BME280;5392;42.688;23.298;2023-05-25T09:02:25;57403.00;;;-144.48;100.00
10688;BME280;5392;42.688;23.298;2023-05-25T09:04:54;57421.78;;;-144.48;100.00
10688;BME280;5392;42.688;23.298;2023-05-25T09:07:22;57432.22;;;-144.48;100.00
10688;BME280;5392;42.688;23.298;2023-05-25T09:09:49;57413.44;;;-144.48;100.00
10688;BME280;5392;42.688;23.298;2023-05-25T09:12:17;57392.56;;;-144.48;100.00
10688;BME280;5392;42.688;23.298;2023-05-25T09:14:44;57413.44;;;-144.48;100.00
10688;BME280;5392;42.688;23.298;2023-05-25T09:17:14;57442.66;;;-144.48;100.00
10688;BME280;5392;42.688;23.298;2023-05-25T09:19:42;57436.38;;;-144.48;100.00
10688;BME280;5392;42.688;23.298;2023-05-25T09:22:09;57423.88;;;-144.48;100.00
10688;BME280;5392;42.688;23.298;2023-05-25T09:24:42;57392.56;;;-144.48;100.00
10688;BME280;5392;42.688;23.298;2023-05-25T09:27:11;57409.25;;;-144.48;100.00
10688;BME280;5392;42.688;23.298;2023-05-25T09:29:38;57394.63;;;-144.48;100.00
10688;BME280;5392;42.688;23.298;2023-05-25T09:32:05;57386.28;;;-144.48;100.00
10688;BME280;5392;42.688;23.298;2023-05-25T09:34:33;57405.06;;;-144.48;100.00
10688;BME280;5392;42.688;23.298;2023-05-25T09:37:02;57392.56;;;-144.48;100.00
10688;BME280;5392;42.688;23.298;2023-05-25T09:39:29;57369.59;;;-144.48;100.00
10688;BME280;5392;42.688;23.298;2023-05-25T09:41:56;57409.25;;;-144.48;100.00
10688;BME280;5392;42.688;23.298;2023-05-25T09:44:23;57423.88;;;-144.48;100.00
10688;BME280;5392;42.688;23.298;2023-05-25T09:46:52;57386.28;;;-144.48;100.00
10688;BME280;5392;42.688;23.298;2023-05-25T09:49:19;57390.47;;;-144.48;100.00
10688;BME280;5392;42.688;23.298;2023-05-25T09:51:47;57417.59;;;-144.48;100.00
10688;BME280;5392;42.688;23.298;2023-05-25T09:54:14;57409.25;;;-144.48;100.00
10688;BME280;5392;42.688;23.298;2023-05-25T09:56:41;57396.72;;;-144.48;100.00
10688;BME280;5392;42.688;23.298;2023-05-25T09:59:07;57392.56;;;-144.48;100.00
10688;BME280;5392;42.688;23.298;2023-05-25T10:01:34;57392.56;;;-144.48;100.00
10688;BME280;5392;42.688;23.298;2023-05-25T10:04:02;57386.28;;;-144.48;100.00
10688;BME280;5392;42.688;23.298;2023-05-25T10:06:32;57396.72;;;-144.48;100.00
10688;BME280;5392;42.688;23.298;2023-05-25T10:09:00;57419.69;;;-144.48;98.66
10688;BME280;5392;42.688;23.298;2023-05-25T10:11:28;57380.03;;;-144.48;95.72
10688;BME280;5392;42.688;23.298;2023-05-25T10:13:54;57375.84;;;-144.48;94.02
10688;BME280;5392;42.688;23.298;2023-05-25T10:16:25;57361.25;;;-144.48;94.53
10688;BME280;5392;42.688;23.298;2023-05-25T10:19:07;57365.41;;;-144.48;92.68
10688;BME280;5392;42.688;23.298;2023-05-25T10:21:37;57390.47;;;-144.48;88.66
10688;BME280;5392;42.688;23.298;2023-05-25T10:24:11;57369.59;;;-144.48;85.46
10688;BME280;5392;42.688;23.298;2023-05-25T10:26:45;57354.97;;;-144.48;88.29
10688;BME280;5392;42.688;23.298;2023-05-25T10:29:15;57365.41;;;-144.48;83.61
10688;BME280;5392;42.688;23.298;2023-05-25T10:31:43;57357.06;;;-144.48;84.60
10688;BME280;5392;42.688;23.298;2023-05-25T10:34:11;57340.38;;;-144.48;79.62
10688;BME280;5392;42.688;23.298;2023-05-25T10:36:39;57367.50;;;-144.48;74.28
10688;BME280;5392;42.688;23.298;2023-05-25T10:39:07;57350.81;;;-144.48;76.17
10688;BME280;5392;42.688;23.298;2023-05-25T10:41:34;57359.16;;;-144.48;78.29
10688;BME280;5392;42.688;23.298;2023-05-25T10:44:01;57329.94;;;-144.48;80.40
10688;BME280;5392;42.688;23.298;2023-05-25T10:46:28;57367.50;;;-144.48;79.05
10688;BME280;5392;42.688;23.298;2023-05-25T10:48:55;57359.16;;;-144.48;75.50
10688;BME280;5392;42.688;23.298;2023-05-25T10:51:40;57357.06;;;-144.48;73.20
10688;BME280;5392;42.688;23.298;2023-05-25T10:54:07;57357.06;;;-144.48;73.43
10688;BME280;5392;42.688;23.298;2023-05-25T10:56:33;57357.06;;;-144.48;73.69
10688;BME280;5392;42.688;23.298;2023-05-25T10:59:00;57386.28;;;-144.48;74.17
10688;BME280;5392;42.688;23.298;2023-05-25T11:01:29;57390.47;;;-144.48;72.84
10688;BME280;5392;42.688;23.298;2023-05-25T11:09:03;57342.47;;;-144.48;71.61
10688;BME280;5392;42.688;23.298;2023-05-25T11:14:28;57359.16;;;-144.48;70.44
10688;BME280;5392;42.688;23.298;2023-05-25T11:17:16;57338.28;;;-144.48;67.53
10688;BME280;5392;42.688;23.298;2023-05-25T11:19:52;57354.97;;;-144.48;67.39
10688;BME280;5392;42.688;23.298;2023-05-25T11:22:30;57357.06;;;-144.48;69.19
10688;BME280;5392;42.688;23.298;2023-05-25T11:24:59;57350.81;;;-144.48;71.76
10688;BME280;5392;42.688;23.298;2023-05-25T11:27:27;57354.97;;;-144.48;74.13
10688;BME280;5392;42.688;23.298;2023-05-25T11:29:55;57363.31;;;-144.48;72.87
10688;BME280;5392;42.688;23.298;2023-05-25T11:32:24;57342.47;;;-144.48;71.37
10688;BME280;5392;42.688;23.298;2023-05-25T11:34:55;57363.31;;;-144.48;74.53
10688;BME280;5392;42.688;23.298;2023-05-25T11:37:25;57348.72;;;-144.48;72.15
10688;BME280;5392;42.688;23.298;2023-05-25T11:39:54;57365.41;;;-144.48;70.03
10688;BME280;5392;42.688;23.298;2023-05-25T11:42:22;57338.28;;;-144.48;71.95
10688;BME280;5392;42.688;23.298;2023-05-25T11:44:50;57369.59;;;-144.48;73.27
10688;BME280;5392;42.688;23.298;2023-05-25T11:47:20;57365.41;;;-144.48;75.98
10688;BME280;5392;42.688;23.298;2023-05-25T11:49:48;57380.03;;;-144.48;75.31
10688;BME280;5392;42.688;23.298;2023-05-25T11:52:17;57400.91;;;-144.48;75.22
10688;BME280;5392;42.688;23.298;2023-05-25T11:54:44;57363.31;;;-144.48;78.13
10688;BME280;5392;42.688;23.298;2023-05-25T11:57:19;57363.31;;;-144.48;82.67
10688;BME280;5392;42.688;23.298;2023-05-25T11:59:49;57394.63;;;-144.48;83.73
10688;BME280;5392;42.688;23.298;2023-05-25T12:02:16;57392.56;;;-144.48;86.07
10688;BME280;5392;42.688;23.298;2023-05-25T12:04:54;57371.69;;;-144.48;87.77
10688;BME280;5392;42.688;23.298;2023-05-25T12:07:22;57350.81;;;-144.48;86.37
10688;BME280;5392;42.688;23.298;2023-05-25T12:09:49;57384.19;;;-144.48;84.39
10688;BME280;5392;42.688;23.298;2023-05-25T12:12:16;57371.69;;;-144.48;80.74
10688;BME280;5392;42.688;23.298;2023-05-25T12:14:49;57344.53;;;-144.48;78.27
10688;BME280;5392;42.688;23.298;2023-05-25T12:17:18;57352.91;;;-144.48;76.84
10688;BME280;5392;42.688;23.298;2023-05-25T12:19:47;57346.63;;;-144.48;72.99
10688;BME280;5392;42.688;23.298;2023-05-25T12:22:14;57367.50;;;-144.48;73.09
10688;BME280;5392;42.688;23.298;2023-05-25T12:24:42;57357.06;;;-144.48;73.63
10688;BME280;5392;42.688;23.298;2023-05-25T12:27:16;57338.28;;;-144.48;71.22
10688;BME280;5392;42.688;23.298;2023-05-25T12:29:47;57394.63;;;-144.48;70.75
10688;BME280;5392;42.688;23.298;2023-05-25T12:32:15;57359.16;;;-144.48;71.45
10688;BME280;5392;42.688;23.298;2023-05-25T12:34:42;57342.47;;;-144.48;72.06
10688;BME280;5392;42.688;23.298;2023-05-25T12:37:19;57352.91;;;-144.48;70.83
10688;BME280;5392;42.688;23.298;2023-05-25T12:39:47;57361.25;;;-144.48;68.49
10688;BME280;5392;42.688;23.298;2023-05-25T12:42:15;57361.25;;;-144.48;69.79
10688;BME280;5392;42.688;23.298;2023-05-25T12:44:44;57369.59;;;-144.48;67.59
10688;BME280;5392;42.688;23.298;2023-05-25T12:47:20;57357.06;;;-144.48;64.80
10688;BME280;5392;42.688;23.298;2023-05-25T12:49:53;57352.91;;;-144.48;63.75
10688;BME280;5392;42.688;23.298;2023-05-25T12:52:36;57359.16;;;-144.48;64.66